sensor_id;sensor_type;location;lat;lon;timestamp;temperature;humidity
2495;DHT22;1258;48.336;14.322;2023-11-21T00:01:46;7.90;99.90
2495;DHT22;1258;48.336;14.322;2023-11-21T00:04:13;7.90;99.90
2495;DHT22;1258;48.336;14.322;2023-11-21T00:06:41;7.80;99.90
2495;DHT22;1258;48.336;14.322;2023-11-21T00:09:09;7.90;99.90
2495;DHT22;1258;48.336;14.322;2023-11-21T00:11:38;7.90;99.90
2495;DHT22;1258;48.336;14.322;2023-11-21T00:14:06;7.90;99.90
2495;DHT22;1258;48.336;14.322;2023-11-21T00:16:34;7.80;99.90
2495;DHT22;1258;48.336;14.322;2023-11-21T00:19:01;7.70;99.90
2495;DHT22;1258;48.336;14.322;2023-11-21T00:21:28;7.70;99.90
2495;DHT22;1258;48.336;14.322;2023-11-21T00:23:55;7.70;99.90
2495;DHT22;1258;48.336;14.322;2023-11-21T00:26:23;7.70;99.90
2495;DHT22;1258;48.336;14.322;2023-11-21T00:28:51;7.70;99.90
2495;DHT22;1258;48.336;14.322;2023-11-21T00:31:18;7.70;99.90
2495;DHT22;1258;48.336;14.322;2023-11-21T00:33:45;7.70;99.90
2495;DHT22;1258;48.336;14.322;2023-11-21T00:36:12;7.80;99.90
2495;DHT22;1258;48.336;14.322;2023-11-21T00:38:39;7.80;99.90
2495;DHT22;1258;48.336;14.322;2023-11-21T00:41:06;7.80;99.90
2495;DHT22;1258;48.336;14.322;2023-11-21T00:43:34;7.80;99.90
2495;DHT22;1258;48.336;14.322;2023-11-21T00:46:04;7.80;99.90
2495;DHT22;1258;48.336;14.322;2023-11-21T00:48:32;7.80;99.90
2495;DHT22;1258;48.336;14.322;2023-11-21T00:50:59;7.80;99.90
2495;DHT22;1258;48.336;14.322;2023-11-21T00:53:27;7.90;99.90
2495;DHT22;1258;48.336;14.322;2023-11-21T00:55:54;7.90;99.90
2495;DHT22;1258;48.336;14.322;2023-11-21T00:58:23;7.90;99.90
2495;DHT22;1258;48.336;14.322;2023-11-21T01:00:51;7.90;99.90
2495;DHT22;1258;48.336;14.322;2023-11-21T01:03:18;7.90;99.90
2495;DHT22;1258;48.336;14.322;2023-11-21T01:05:45;7.90;99.90
2495;DHT22;1258;48.336;14.322;2023-11-21T01:08:12;7.80;99.90
2495;DHT22;1258;48.336;14.322;2023-11-21T01:10:39;7.90;99.90
2495;DHT22;1258;48.336;14.322;2023-11-21T01:13:07;7.90;99.90
2495;DHT22;1258;48.336;14.322;2023-11-21T01:15:34;7.90;99.90
2495;DHT22;1258;48.336;14.322;2023-11-21T01:18:03;7.90;99.90
2495;DHT22;1258;48.336;14.322;2023-11-21T01:20:30;7.90;99.90
2495;DHT22;1258;48.336;14.322;2023-11-21T01:22:58;7.90;99.90
2495;DHT22;1258;48.336;14.322;2023-11-21T01:25:25;7.90;99.90
2495;DHT22;1258;48.336;14.322;2023-11-21T01:27:52;8.00;99.90
2495;DHT22;1258;48.336;14.322;2023-11-21T01:30:19;8.00;99.90
2495;DHT22;1258;48.336;14.322;2023-11-21T01:32:47;8.00;99.90
2495;DHT22;1258;48.336;14.322;2023-11-21T01:35:16;8.10;99.90
2495;DHT22;1258;48.336;14.322;2023-11-21T01:37:43;8.10;99.90
2495;DHT22;1258;48.336;14.322;2023-11-21T01:40:10;8.10;99.90
2495;DHT22;1258;48.336;14.322;2023-11-21T01:42:39;8.10;99.90
2495;DHT22;1258;48.336;14.322;2023-11-21T01:45:07;8.20;99.90
2495;DHT22;1258;48.336;14.322;2023-11-21T01:47:35;8.20;99.90
2495;DHT22;1258;48.336;14.322;2023-11-21T01:50:03;8.20;99.90
2495;DHT22;1258;48.336;14.322;2023-11-21T01:52:33;8.20;99.90
2495;DHT22;1258;48.336;14.322;2023-11-21T01:55:01;8.30;99.90
2495;DHT22;1258;48.336;14.322;2023-11-21T01:57:29;8.20;99.90
2495;DHT22;1258;48.336;14.322;2023-11-21T01:59:57;8.20;99.90
2495;DHT22;1258;48.336;14.322;2023-11-21T02:02:25;8.10;99.90
2495;DHT22;1258;48.336;14.322;2023-11-21T02:04:52;8.10;99.90
2495;DHT22;1258;48.336;14.322;2023-11-21T02:07:19;8.10;99.90
2495;DHT22;1258;48.336;14.322;2023-11-21T02:09:50;8.10;99.90
2495;DHT22;1258;48.336;14.322;2023-11-21T02:12:17;8.10;99.90
2495;DHT22;1258;48.336;14.322;2023-11-21T02:14:44;8.00;99.90
2495;DHT22;1258;48.336;14.322;2023-11-21T02:17:11;8.00;99.90
2495;DHT22;1258;48.336;14.322;2023-11-21T02:19:39;8.00;99.90
2495;DHT22;1258;48.336;14.322;2023-11-21T02:22:06;8.00;99.90
2495;DHT22;1258;48.336;14.322;2023-11-21T02:24:35;7.90;99.90
2495;DHT22;1258;48.336;14.322;2023-11-21T02:27:02;7.90;99.90
2495;DHT22;1258;48.336;14.322;2023-11-21T02:29:30;7.80;99.90
2495;DHT22;1258;48.336;14.322;2023-11-21T02:31:57;7.80;99.90
2495;DHT22;1258;48.336;14.322;2023-11-21T02:34:25;7.70;99.90
2495;DHT22;1258;48.336;14.322;2023-11-21T02:36:52;7.70;99.90
2495;DHT22;1258;48.336;14.322;2023-11-21T02:39:20;7.70;99.90
2495;DHT22;1258;48.336;14.322;2023-11-21T02:41:49;7.70;99.90
2495;DHT22;1258;48.336;14.322;2023-11-21T02:44:16;7.60;99.90
2495;DHT22;1258;48.336;14.322;2023-11-21T02:46:43;7.70;99.90
2495;DHT22;1258;48.336;14.322;2023-11-21T02:49:10;7.60;99.90
2495;DHT22;1258;48.336;14.322;2023-11-21T02:51:37;7.60;99.90
2495;DHT22;1258;48.336;14.322;2023-11-21T02:54:05;7.60;99.90
2495;DHT22;1258;48.336;14.322;2023-11-21T02:56:33;7.60;99.90
2495;DHT22;1258;48.336;14.322;2023-11-21T02:59:02;7.60;99.90
2495;DHT22;1258;48.336;14.322;2023-11-21T03:01:30;7.50;99.90
2495;DHT22;1258;48.336;14.322;2023-11-21T03:03:57;7.50;99.90
2495;DHT22;1258;48.336;14.322;2023-11-21T03:06:25;7.50;99.90
2495;DHT22;1258;48.336;14.322;2023-11-21T03:08:52;7.50;99.90
2495;DHT22;1258;48.336;14.322;2023-11-21T03:11:19;7.50;99.90
2495;DHT22;1258;48.336;14.322;2023-11-21T03:13:46;7.50;99.90
2495;DHT22;1258;48.336;14.322;2023-11-21T03:16:15;7.50;99.90
2495;DHT22;1258;48.336;14.322;2023-11-21T03:18:42;7.50;99.90
2495;DHT22;1258;48.336;14.322;2023-11-21T03:21:10;7.50;99.90
2495;DHT22;1258;48.336;14.322;2023-11-21T03:23:37;7.50;99.90
2495;DHT22;1258;48.336;14.322;2023-11-21T03:26:05;7.50;99.90
2495;DHT22;1258;48.336;14.322;2023-11-21T03:28:34;7.50;99.90
2495;DHT22;1258;48.336;14.322;2023-11-21T03:31:01;7.50;99.90
2495;DHT22;1258;48.336;14.322;2023-11-21T03:33:29;7.50;99.90
2495;DHT22;1258;48.336;14.322;2023-11-21T03:35:57;7.50;99.90
2495;DHT22;1258;48.336;14.322;2023-11-21T03:38:24;7.40;99.90
2495;DHT22;1258;48.336;14.322;2023-11-21T03:40:51;7.40;99.90
2495;DHT22;1258;48.336;14.322;2023-11-21T03:43:19;7.40;99.90
2495;DHT22;1258;48.336;14.322;2023-11-21T03:45:46;7.40;99.90
2495;DHT22;1258;48.336;14.322;2023-11-21T03:48:13;7.30;99.90
2495;DHT22;1258;48.336;14.322;2023-11-21T03:50:41;7.30;99.90
2495;DHT22;1258;48.336;14.322;2023-11-21T03:53:08;7.30;99.90
2495;DHT22;1258;48.336;14.322;2023-11-21T03:55:35;7.30;99.90
2495;DHT22;1258;48.336;14.322;2023-11-21T03:58:02;7.20;99.90
2495;DHT22;1258;48.336;14.322;2023-11-21T04:00:29;7.20;99.90
2495;DHT22;1258;48.336;14.322;2023-11-21T04:02:57;7.20;99.90
2495;DHT22;1258;48.336;14.322;2023-11-21T04:05:24;7.10;99.90
2495;DHT22;1258;48.336;14.322;2023-11-21T04:07:53;7.10;99.90
2495;DHT22;1258;48.336;14.322;2023-11-21T04:10:20;7.10;99.90
2495;DHT22;1258;48.336;14.322;2023-11-21T04:12:47;7.00;99.90
2495;DHT22;1258;48.336;14.322;2023-11-21T04:15:15;7.00;99.90
2495;DHT22;1258;48.336;14.322;2023-11-21T04:17:42;6.90;99.90
2495;DHT22;1258;48.336;14.322;2023-11-21T04:20:11;6.90;99.90
2495;DHT22;1258;48.336;14.322;2023-11-21T04:22:38;6.80;99.90
2495;DHT22;1258;48.336;14.322;2023-11-21T04:25:11;6.80;99.90
2495;DHT22;1258;48.336;14.322;2023-11-21T04:27:39;6.70;99.90
2495;DHT22;1258;48.336;14.322;2023-11-21T04:30:07;6.70;99.90
2495;DHT22;1258;48.336;14.322;2023-11-21T04:32:35;6.70;99.90
2495;DHT22;1258;48.336;14.322;2023-11-21T04:35:03;6.70;99.90
2495;DHT22;1258;48.336;14.322;2023-11-21T04:37:30;6.60;99.90
2495;DHT22;1258;48.336;14.322;2023-11-21T04:39:57;6.60;99.90
2495;DHT22;1258;48.336;14.322;2023-11-21T04:42:25;6.60;99.90
2495;DHT22;1258;48.336;14.322;2023-11-21T04:44:52;6.50;99.90
2495;DHT22;1258;48.336;14.322;2023-11-21T04:47:20;6.50;99.90
2495;DHT22;1258;48.336;14.322;2023-11-21T04:49:48;6.60;99.90
2495;DHT22;1258;48.336;14.322;2023-11-21T04:52:15;6.60;99.90
2495;DHT22;1258;48.336;14.322;2023-11-21T04:54:42;6.50;99.90
2495;DHT22;1258;48.336;14.322;2023-11-21T04:57:09;6.50;99.90
2495;DHT22;1258;48.336;14.322;2023-11-21T04:59:37;6.50;99.90
2495;DHT22;1258;48.336;14.322;2023-11-21T05:02:04;6.50;99.90
2495;DHT22;1258;48.336;14.322;2023-11-21T05:04:32;6.50;99.90
2495;DHT22;1258;48.336;14.322;2023-11-21T05:06:59;6.50;99.90
2495;DHT22;1258;48.336;14.322;2023-11-21T05:09:26;6.60;99.90
2495;DHT22;1258;48.336;14.322;2023-11-21T05:11:57;6.60;99.90
2495;DHT22;1258;48.336;14.322;2023-11-21T05:14:25;6.60;99.90
2495;DHT22;1258;48.336;14.322;2023-11-21T05:16:54;6.60;99.90
2495;DHT22;1258;48.336;14.322;2023-11-21T05:19:21;6.70;99.90
2495;DHT22;1258;48.336;14.322;2023-11-21T05:21:48;6.70;99.90
2495;DHT22;1258;48.336;14.322;2023-11-21T05:24:15;6.70;99.90
2495;DHT22;1258;48.336;14.322;2023-11-21T05:26:42;6.70;99.90
2495;DHT22;1258;48.336;14.322;2023-11-21T05:29:09;6.70;99.90
2495;DHT22;1258;48.336;14.322;2023-11-21T05:31:36;6.70;99.90
2495;DHT22;1258;48.336;14.322;2023-11-21T05:34:05;6.70;99.90
2495;DHT22;1258;48.336;14.322;2023-11-21T05:36:32;6.70;99.90
2495;DHT22;1258;48.336;14.322;2023-11-21T05:38:59;6.70;99.90
2495;DHT22;1258;48.336;14.322;2023-11-21T05:41:26;6.60;99.90
2495;DHT22;1258;48.336;14.322;2023-11-21T05:43:53;6.60;99.90
2495;DHT22;1258;48.336;14.322;2023-11-21T05:46:20;6.70;99.90
2495;DHT22;1258;48.336;14.322;2023-11-21T05:48:47;6.80;99.90
2495;DHT22;1258;48.336;14.322;2023-11-21T05:51:16;6.80;99.90
2495;DHT22;1258;48.336;14.322;2023-11-21T05:53:43;6.90;99.90
2495;DHT22;1258;48.336;14.322;2023-11-21T05:56:10;6.90;99.90
2495;DHT22;1258;48.336;14.322;2023-11-21T05:58:37;6.90;99.90
2495;DHT22;1258;48.336;14.322;2023-11-21T06:01:06;6.80;99.90
2495;DHT22;1258;48.336;14.322;2023-11-21T06:03:34;6.90;99.90
2495;DHT22;1258;48.336;14.322;2023-11-21T06:06:02;6.80;99.90
2495;DHT22;1258;48.336;14.322;2023-11-21T06:08:31;6.80;99.90
2495;DHT22;1258;48.336;14.322;2023-11-21T06:10:58;6.80;99.90
2495;DHT22;1258;48.336;14.322;2023-11-21T06:13:25;6.70;99.90
2495;DHT22;1258;48.336;14.322;2023-11-21T06:15:52;6.70;99.90
2495;DHT22;1258;48.336;14.322;2023-11-21T06:18:19;6.60;99.90
2495;DHT22;1258;48.336;14.322;2023-11-21T06:20:46;6.60;99.90
2495;DHT22;1258;48.336;14.322;2023-11-21T06:23:14;6.70;99.90
2495;DHT22;1258;48.336;14.322;2023-11-21T06:25:43;6.60;99.90
2495;DHT22;1258;48.336;14.322;2023-11-21T06:28:10;6.70;99.90
2495;DHT22;1258;48.336;14.322;2023-11-21T06:30:37;6.70;99.90
2495;DHT22;1258;48.336;14.322;2023-11-21T06:33:04;6.70;99.90
2495;DHT22;1258;48.336;14.322;2023-11-21T06:35:32;6.70;99.90
2495;DHT22;1258;48.336;14.322;2023-11-21T06:38:00;6.70;99.90
2495;DHT22;1258;48.336;14.322;2023-11-21T06:40:28;6.70;99.90
2495;DHT22;1258;48.336;14.322;2023-11-21T06:42:57;6.70;99.90
2495;DHT22;1258;48.336;14.322;2023-11-21T06:45:26;6.70;99.90
2495;DHT22;1258;48.336;14.322;2023-11-21T06:47:53;6.70;99.90
2495;DHT22;1258;48.336;14.322;2023-11-21T06:50:20;6.80;99.90
2495;DHT22;1258;48.336;14.322;2023-11-21T06:52:47;6.80;99.90
2495;DHT22;1258;48.336;14.322;2023-11-21T06:55:15;6.70;99.90
2495;DHT22;1258;48.336;14.322;2023-11-21T06:57:42;6.80;99.90
2495;DHT22;1258;48.336;14.322;2023-11-21T07:00:13;6.90;99.90
2495;DHT22;1258;48.336;14.322;2023-11-21T07:02:40;6.90;99.90
2495;DHT22;1258;48.336;14.322;2023-11-21T07:05:08;7.00;99.90
2495;DHT22;1258;48.336;14.322;2023-11-21T07:07:35;7.00;99.90
2495;DHT22;1258;48.336;14.322;2023-11-21T07:10:03;7.00;99.90
2495;DHT22;1258;48.336;14.322;2023-11-21T07:12:31;7.00;99.90
2495;DHT22;1258;48.336;14.322;2023-11-21T07:14:58;7.00;99.90
2495;DHT22;1258;48.336;14.322;2023-11-21T07:17:26;7.00;99.90
2495;DHT22;1258;48.336;14.322;2023-11-21T07:19:53;7.10;99.90
2495;DHT22;1258;48.336;14.322;2023-11-21T07:22:20;7.10;99.90
2495;DHT22;1258;48.336;14.322;2023-11-21T07:24:48;7.10;99.90
2495;DHT22;1258;48.336;14.322;2023-11-21T07:27:16;7.10;99.90
2495;DHT22;1258;48.336;14.322;2023-11-21T07:29:44;7.10;99.90
2495;DHT22;1258;48.336;14.322;2023-11-21T07:32:11;7.00;99.90
2495;DHT22;1258;48.336;14.322;2023-11-21T07:34:40;7.00;99.90
2495;DHT22;1258;48.336;14.322;2023-11-21T07:37:07;7.00;99.90
2495;DHT22;1258;48.336;14.322;2023-11-21T07:39:34;7.00;99.90
2495;DHT22;1258;48.336;14.322;2023-11-21T07:42:02;7.10;99.90
2495;DHT22;1258;48.336;14.322;2023-11-21T07:44:30;7.10;99.90
2495;DHT22;1258;48.336;14.322;2023-11-21T07:46:57;7.20;99.90
2495;DHT22;1258;48.336;14.322;2023-11-21T07:49:24;7.30;99.90
2495;DHT22;1258;48.336;14.322;2023-11-21T07:51:53;7.20;99.90
2495;DHT22;1258;48.336;14.322;2023-11-21T07:54:20;7.30;99.90
2495;DHT22;1258;48.336;14.322;2023-11-21T07:56:48;7.30;99.90
2495;DHT22;1258;48.336;14.322;2023-11-21T07:59:15;7.30;99.90
2495;DHT22;1258;48.336;14.322;2023-11-21T08:01:43;7.40;99.90
2495;DHT22;1258;48.336;14.322;2023-11-21T08:04:11;7.40;99.90
2495;DHT22;1258;48.336;14.322;2023-11-21T08:06:38;7.50;99.90
2495;DHT22;1258;48.336;14.322;2023-11-21T08:09:08;7.40;99.90
2495;DHT22;1258;48.336;14.322;2023-11-21T08:11:38;7.50;99.90
2495;DHT22;1258;48.336;14.322;2023-11-21T08:14:05;7.60;99.90
2495;DHT22;1258;48.336;14.322;2023-11-21T08:16:32;7.60;99.90
2495;DHT22;1258;48.336;14.322;2023-11-21T08:18:59;7.50;99.90
2495;DHT22;1258;48.336;14.322;2023-11-21T08:21:26;7.50;99.90
2495;DHT22;1258;48.336;14.322;2023-11-21T08:23:54;7.50;99.90
2495;DHT22;1258;48.336;14.322;2023-11-21T08:26:23;7.60;99.90
2495;DHT22;1258;48.336;14.322;2023-11-21T08:28:50;7.60;99.90
2495;DHT22;1258;48.336;14.322;2023-11-21T08:31:24;7.70;99.90
2495;DHT22;1258;48.336;14.322;2023-11-21T08:33:51;7.70;99.90
2495;DHT22;1258;48.336;14.322;2023-11-21T08:36:20;7.70;99.90
2495;DHT22;1258;48.336;14.322;2023-11-21T08:38:48;7.70;99.90
2495;DHT22;1258;48.336;14.322;2023-11-21T08:41:18;7.70;99.90
2495;DHT22;1258;48.336;14.322;2023-11-21T08:43:49;7.80;99.90
2495;DHT22;1258;48.336;14.322;2023-11-21T08:46:16;7.70;99.90
2495;DHT22;1258;48.336;14.322;2023-11-21T08:48:43;7.70;99.90
2495;DHT22;1258;48.336;14.322;2023-11-21T08:51:11;7.70;99.90
2495;DHT22;1258;48.336;14.322;2023-11-21T08:53:39;7.70;99.90
2495;DHT22;1258;48.336;14.322;2023-11-21T08:56:07;7.70;99.90
2495;DHT22;1258;48.336;14.322;2023-11-21T08:58:35;7.80;99.90
2495;DHT22;1258;48.336;14.322;2023-11-21T09:01:05;7.70;99.90
2495;DHT22;1258;48.336;14.322;2023-11-21T09:03:32;7.80;99.90
2495;DHT22;1258;48.336;14.322;2023-11-21T09:06:00;7.80;99.90
2495;DHT22;1258;48.336;14.322;2023-11-21T09:08:28;7.80;99.90
2495;DHT22;1258;48.336;14.322;2023-11-21T09:10:55;7.80;99.90
2495;DHT22;1258;48.336;14.322;2023-11-21T09:13:22;7.80;99.90
2495;DHT22;1258;48.336;14.322;2023-11-21T09:15:52;7.80;99.90
2495;DHT22;1258;48.336;14.322;2023-11-21T09:18:21;7.90;99.90
2495;DHT22;1258;48.336;14.322;2023-11-21T09:20:47;7.90;99.90
2495;DHT22;1258;48.336;14.322;2023-11-21T09:23:15;7.90;99.90
2495;DHT22;1258;48.336;14.322;2023-11-21T09:25:42;8.00;99.90
2495;DHT22;1258;48.336;14.322;2023-11-21T09:28:12;7.90;99.90
2495;DHT22;1258;48.336;14.322;2023-11-21T09:30:39;7.90;99.90
2495;DHT22;1258;48.336;14.322;2023-11-21T09:33:06;8.00;99.90
2495;DHT22;1258;48.336;14.322;2023-11-21T09:35:37;8.10;99.90
2495;DHT22;1258;48.336;14.322;2023-11-21T09:38:05;8.10;99.90
2495;DHT22;1258;48.336;14.322;2023-11-21T09:40:36;8.20;99.90
2495;DHT22;1258;48.336;14.322;2023-11-21T09:43:07;8.20;99.90
2495;DHT22;1258;48.336;14.322;2023-11-21T09:45:45;8.30;99.90
2495;DHT22;1258;48.336;14.322;2023-11-21T09:48:13;8.20;99.90
2495;DHT22;1258;48.336;14.322;2023-11-21T09:50:44;8.10;99.90
2495;DHT22;1258;48.336;14.322;2023-11-21T09:53:16;8.20;99.90
2495;DHT22;1258;48.336;14.322;2023-11-21T09:55:45;8.20;99.90
2495;DHT22;1258;48.336;14.322;2023-11-21T09:58:13;8.20;99.90
2495;DHT22;1258;48.336;14.322;2023-11-21T10:00:41;8.20;99.90
2495;DHT22;1258;48.336;14.322;2023-11-21T10:03:09;8.30;99.90
2495;DHT22;1258;48.336;14.322;2023-11-21T10:05:37;8.40;99.90
2495;DHT22;1258;48.336;14.322;2023-11-21T10:08:08;8.50;99.90
2495;DHT22;1258;48.336;14.322;2023-11-21T10:10:36;8.40;99.90
2495;DHT22;1258;48.336;14.322;2023-11-21T10:13:06;8.30;99.90
2495;DHT22;1258;48.336;14.322;2023-11-21T10:15:34;8.30;99.90
2495;DHT22;1258;48.336;14.322;2023-11-21T10:18:07;8.40;99.90
2495;DHT22;1258;48.336;14.322;2023-11-21T10:20:35;8.40;99.90
2495;DHT22;1258;48.336;14.322;2023-11-21T10:23:04;8.40;99.90
2495;DHT22;1258;48.336;14.322;2023-11-21T10:25:34;8.40;99.90
2495;DHT22;1258;48.336;14.322;2023-11-21T10:28:03;8.40;99.90
2495;DHT22;1258;48.336;14.322;2023-11-21T10:30:33;8.50;99.90
2495;DHT22;1258;48.336;14.322;2023-11-21T10:33:03;8.40;99.90
2495;DHT22;1258;48.336;14.322;2023-11-21T10:35:46;8.50;99.90
2495;DHT22;1258;48.336;14.322;2023-11-21T10:38:16;8.50;99.90
2495;DHT22;1258;48.336;14.322;2023-11-21T10:40:45;8.50;99.90
2495;DHT22;1258;48.336;14.322;2023-11-21T10:43:13;8.60;99.90
2495;DHT22;1258;48.336;14.322;2023-11-21T10:45:42;8.60;99.90
2495;DHT22;1258;48.336;14.322;2023-11-21T10:48:12;8.60;99.90
2495;DHT22;1258;48.336;14.322;2023-11-21T10:50:41;8.50;99.90
2495;DHT22;1258;48.336;14.322;2023-11-21T10:53:10;8.70;99.90
2495;DHT22;1258;48.336;14.322;2023-11-21T10:55:38;8.70;99.90
2495;DHT22;1258;48.336;14.322;2023-11-21T10:58:07;8.70;99.90
2495;DHT22;1258;48.336;14.322;2023-11-21T11:00:40;8.70;99.90
2495;DHT22;1258;48.336;14.322;2023-11-21T11:03:09;8.70;99.90
2495;DHT22;1258;48.336;14.322;2023-11-21T11:05:41;8.70;99.90
2495;DHT22;1258;48.336;14.322;2023-11-21T11:08:12;8.60;99.90
2495;DHT22;1258;48.336;14.322;2023-11-21T11:10:44;8.70;99.90
2495;DHT22;1258;48.336;14.322;2023-11-21T11:13:15;8.70;99.90
2495;DHT22;1258;48.336;14.322;2023-11-21T11:15:46;8.80;99.90
2495;DHT22;1258;48.336;14.322;2023-11-21T11:18:14;8.80;99.90
2495;DHT22;1258;48.336;14.322;2023-11-21T11:20:46;8.80;99.90
2495;DHT22;1258;48.336;14.322;2023-11-21T11:23:32;8.80;99.90
2495;DHT22;1258;48.336;14.322;2023-11-21T11:26:12;8.80;99.90
2495;DHT22;1258;48.336;14.322;2023-11-21T11:28:47;8.90;99.90
2495;DHT22;1258;48.336;14.322;2023-11-21T11:31:27;8.80;99.90
2495;DHT22;1258;48.336;14.322;2023-11-21T11:34:08;8.80;99.90
2495;DHT22;1258;48.336;14.322;2023-11-21T11:36:44;8.90;99.90
2495;DHT22;1258;48.336;14.322;2023-11-21T11:39:30;8.90;99.90
2495;DHT22;1258;48.336;14.322;2023-11-21T11:41:58;9.00;99.90
2495;DHT22;1258;48.336;14.322;2023-11-21T11:44:49;9.00;99.90
2495;DHT22;1258;48.336;14.322;2023-11-21T11:47:23;9.00;99.90
2495;DHT22;1258;48.336;14.322;2023-11-21T11:50:05;9.00;99.90
2495;DHT22;1258;48.336;14.322;2023-11-21T11:52:39;9.00;99.90
2495;DHT22;1258;48.336;14.322;2023-11-21T11:55:08;9.00;99.90
2495;DHT22;1258;48.336;14.322;2023-11-21T11:57:37;9.10;99.90
2495;DHT22;1258;48.336;14.322;2023-11-21T12:00:17;9.20;99.90
2495;DHT22;1258;48.336;14.322;2023-11-21T12:02:52;9.10;99.90
2495;DHT22;1258;48.336;14.322;2023-11-21T12:05:21;9.00;99.90
2495;DHT22;1258;48.336;14.322;2023-11-21T12:07:50;9.00;99.90
2495;DHT22;1258;48.336;14.322;2023-11-21T12:10:20;9.10;99.90
2495;DHT22;1258;48.336;14.322;2023-11-21T12:12:51;9.20;99.90
2495;DHT22;1258;48.336;14.322;2023-11-21T12:15:20;9.20;99.90
2495;DHT22;1258;48.336;14.322;2023-11-21T12:17:48;9.30;99.90
2495;DHT22;1258;48.336;14.322;2023-11-21T12:20:18;9.30;99.90
2495;DHT22;1258;48.336;14.322;2023-11-21T12:22:47;9.30;99.90
2495;DHT22;1258;48.336;14.322;2023-11-21T12:25:15;9.40;99.90
2495;DHT22;1258;48.336;14.322;2023-11-21T12:27:45;9.30;99.90
2495;DHT22;1258;48.336;14.322;2023-11-21T12:30:14;9.30;99.90
2495;DHT22;1258;48.336;14.322;2023-11-21T12:32:43;9.30;99.90
2495;DHT22;1258;48.336;14.322;2023-11-21T12:35:12;9.30;99.90
2495;DHT22;1258;48.336;14.322;2023-11-21T12:37:41;9.30;99.90
2495;DHT22;1258;48.336;14.322;2023-11-21T12:40:10;9.30;99.90
2495;DHT22;1258;48.336;14.322;2023-11-21T12:42:40;9.20;99.90
2495;DHT22;1258;48.336;14.322;2023-11-21T12:45:09;9.20;99.90
2495;DHT22;1258;48.336;14.322;2023-11-21T12:47:43;9.20;99.90
2495;DHT22;1258;48.336;14.322;2023-11-21T12:50:11;9.30;99.90
2495;DHT22;1258;48.336;14.322;2023-11-21T12:52:45;9.30;99.90
2495;DHT22;1258;48.336;14.322;2023-11-21T12:55:15;9.20;99.90
2495;DHT22;1258;48.336;14.322;2023-11-21T12:57:43;9.20;99.90
2495;DHT22;1258;48.336;14.322;2023-11-21T13:00:12;9.20;99.90
2495;DHT22;1258;48.336;14.322;2023-11-21T13:02:54;9.20;99.90
2495;DHT22;1258;48.336;14.322;2023-11-21T13:05:30;9.10;99.90
2495;DHT22;1258;48.336;14.322;2023-11-21T13:07:58;9.20;99.90
2495;DHT22;1258;48.336;14.322;2023-11-21T13:10:29;9.20;99.90
2495;DHT22;1258;48.336;14.322;2023-11-21T13:12:57;9.10;99.90
2495;DHT22;1258;48.336;14.322;2023-11-21T13:15:26;9.10;99.90
2495;DHT22;1258;48.336;14.322;2023-11-21T13:17:55;9.20;99.90
2495;DHT22;1258;48.336;14.322;2023-11-21T13:20:23;9.20;99.90
2495;DHT22;1258;48.336;14.322;2023-11-21T13:22:52;9.20;99.90
2495;DHT22;1258;48.336;14.322;2023-11-21T13:25:23;9.10;99.90
2495;DHT22;1258;48.336;14.322;2023-11-21T13:27:53;9.20;99.90
2495;DHT22;1258;48.336;14.322;2023-11-21T13:30:20;9.10;99.90
2495;DHT22;1258;48.336;14.322;2023-11-21T13:32:52;9.10;99.90
2495;DHT22;1258;48.336;14.322;2023-11-21T13:35:24;9.10;99.90
2495;DHT22;1258;48.336;14.322;2023-11-21T13:38:05;9.10;99.90
2495;DHT22;1258;48.336;14.322;2023-11-21T13:40:33;9.10;99.90
2495;DHT22;1258;48.336;14.322;2023-11-21T13:43:08;9.20;99.90
2495;DHT22;1258;48.336;14.322;2023-11-21T13:45:36;9.20;99.90
2495;DHT22;1258;48.336;14.322;2023-11-21T13:48:05;9.20;99.90
2495;DHT22;1258;48.336;14.322;2023-11-21T13:50:37;9.30;99.90
2495;DHT22;1258;48.336;14.322;2023-11-21T13:53:05;9.30;99.90
2495;DHT22;1258;48.336;14.322;2023-11-21T13:55:44;9.30;99.90
2495;DHT22;1258;48.336;14.322;2023-11-21T13:58:12;9.20;99.90
2495;DHT22;1258;48.336;14.322;2023-11-21T14:00:45;9.20;99.90
2495;DHT22;1258;48.336;14.322;2023-11-21T14:03:13;9.20;99.90
2495;DHT22;1258;48.336;14.322;2023-11-21T14:05:47;9.20;99.90
2495;DHT22;1258;48.336;14.322;2023-11-21T14:08:18;9.20;99.90
2495;DHT22;1258;48.336;14.322;2023-11-21T14:10:46;9.10;99.90
2495;DHT22;1258;48.336;14.322;2023-11-21T14:13:17;9.10;99.90
2495;DHT22;1258;48.336;14.322;2023-11-21T14:15:45;9.10;99.90
2495;DHT22;1258;48.336;14.322;2023-11-21T14:18:16;9.00;99.90
2495;DHT22;1258;48.336;14.322;2023-11-21T14:20:53;9.00;99.90
2495;DHT22;1258;48.336;14.322;2023-11-21T14:23:20;9.10;99.90
2495;DHT22;1258;48.336;14.322;2023-11-21T14:25:49;9.00;99.90
2495;DHT22;1258;48.336;14.322;2023-11-21T14:28:16;9.10;99.90
2495;DHT22;1258;48.336;14.322;2023-11-21T14:30:45;9.00;99.90
2495;DHT22;1258;48.336;14.322;2023-11-21T14:33:12;9.00;99.90
2495;DHT22;1258;48.336;14.322;2023-11-21T14:35:39;9.00;99.90
2495;DHT22;1258;48.336;14.322;2023-11-21T14:38:08;8.90;99.90
2495;DHT22;1258;48.336;14.322;2023-11-21T14:40:36;8.90;99.90
2495;DHT22;1258;48.336;14.322;2023-11-21T14:43:03;8.90;99.90
2495;DHT22;1258;48.336;14.322;2023-11-21T14:45:32;8.80;99.90
2495;DHT22;1258;48.336;14.322;2023-11-21T14:48:00;8.80;99.90
2495;DHT22;1258;48.336;14.322;2023-11-21T14:50:34;8.70;99.90
2495;DHT22;1258;48.336;14.322;2023-11-21T14:53:11;8.80;99.90
2495;DHT22;1258;48.336;14.322;2023-11-21T14:55:39;8.80;99.90
2495;DHT22;1258;48.336;14.322;2023-11-21T14:58:22;8.70;99.90
2495;DHT22;1258;48.336;14.322;2023-11-21T15:00:54;8.70;99.90
2495;DHT22;1258;48.336;14.322;2023-11-21T15:03:24;8.70;99.90
2495;DHT22;1258;48.336;14.322;2023-11-21T15:06:09;8.60;99.90
2495;DHT22;1258;48.336;14.322;2023-11-21T15:08:55;8.70;99.90
2495;DHT22;1258;48.336;14.322;2023-11-21T15:11:45;8.60;99.90
2495;DHT22;1258;48.336;14.322;2023-11-21T15:14:13;8.60;99.90
2495;DHT22;1258;48.336;14.322;2023-11-21T15:16:46;8.60;99.90
2495;DHT22;1258;48.336;14.322;2023-11-21T15:19:17;8.60;99.90
2495;DHT22;1258;48.336;14.322;2023-11-21T15:21:50;8.60;99.90
2495;DHT22;1258;48.336;14.322;2023-11-21T15:24:19;8.60;99.90
2495;DHT22;1258;48.336;14.322;2023-11-21T15:26:46;8.60;99.90
2495;DHT22;1258;48.336;14.322;2023-11-21T15:29:13;8.50;99.90
2495;DHT22;1258;48.336;14.322;2023-11-21T15:31:40;8.50;99.90
2495;DHT22;1258;48.336;14.322;2023-11-21T15:34:11;8.50;99.90
2495;DHT22;1258;48.336;14.322;2023-11-21T15:36:38;8.50;99.90
2495;DHT22;1258;48.336;14.322;2023-11-21T15:39:05;8.40;99.90
2495;DHT22;1258;48.336;14.322;2023-11-21T15:41:34;8.40;99.90
2495;DHT22;1258;48.336;14.322;2023-11-21T15:44:03;8.40;99.90
2495;DHT22;1258;48.336;14.322;2023-11-21T15:46:30;8.50;99.90
2495;DHT22;1258;48.336;14.322;2023-11-21T15:48:58;8.50;99.90
2495;DHT22;1258;48.336;14.322;2023-11-21T15:51:25;8.50;99.90
2495;DHT22;1258;48.336;14.322;2023-11-21T15:53:52;8.40;99.90
2495;DHT22;1258;48.336;14.322;2023-11-21T15:56:19;8.40;99.90
2495;DHT22;1258;48.336;14.322;2023-11-21T15:58:47;8.40;99.90
2495;DHT22;1258;48.336;14.322;2023-11-21T16:01:15;8.40;99.90
2495;DHT22;1258;48.336;14.322;2023-11-21T16:03:42;8.40;99.90
2495;DHT22;1258;48.336;14.322;2023-11-21T16:06:12;8.40;99.90
2495;DHT22;1258;48.336;14.322;2023-11-21T16:08:40;8.40;99.90
2495;DHT22;1258;48.336;14.322;2023-11-21T16:11:07;8.40;99.90
2495;DHT22;1258;48.336;14.322;2023-11-21T16:13:34;8.40;99.90